sensor_id;sensor_type;location;lat;lon;timestamp;P1;durP1;ratioP1;P2;durP2;ratioP2
15500;SDS011;7852;52.228;5.990;2022-08-19T00:05:37;11.2;;;8.5;;
15500;SDS011;7852;52.228;5.990;2022-08-19T00:05:42;12.1;;;7.9;;
15500;SDS011;7852;52.228;5.990;2022-08-19T00:06:26;11.3;;;8.2;;
15500;SDS011;7852;52.228;5.990;2022-08-19T00:07:25;9.4;;;7.3;;
15500;SDS011;7852;52.228;5.990;2022-08-19T00:08:25;10.5;;;8.5;;
15500;SDS011;7852;52.228;5.990;2022-08-19T00:09:25;11.5;;;8.1;;
15500;SDS011;7852;52.228;5.990;2022-08-19T00:10:25;10.8;;;8.5;;
15500;SDS011;7852;52.228;5.990;2022-08-19T00:11:25;9.7;;;7.7;;
15500;SDS011;7852;52.228;5.990;2022-08-19T00:12:25;9.7;;;7.7;;
15500;SDS011;7852;52.228;5.990;2022-08-19T00:13:25;9.5;;;7.8;;
15500;SDS011;7852;52.228;5.990;2022-08-19T00:14:25;10;;;7.7;;
15500;SDS011;7852;52.228;5.990;2022-08-19T00:15:25;9.8;;;7.8;;
15500;SDS011;7852;52.228;5.990;2022-08-19T00:16:25;11.5;;;8.8;;
15500;SDS011;7852;52.228;5.990;2022-08-19T00:17:25;10.2;;;8;;
15500;SDS011;7852;52.228;5.990;2022-08-19T00:18:25;11.4;;;9.2;;
15500;SDS011;7852;52.228;5.990;2022-08-19T00:19:25;9.8;;;8;;
15500;SDS011;7852;52.228;5.990;2022-08-19T00:20:25;11.1;;;8.8;;
15500;SDS011;7852;52.228;5.990;2022-08-19T00:21:26;12.9;;;8.8;;
15500;SDS011;7852;52.228;5.990;2022-08-19T00:22:25;11.6;;;8.5;;
15500;SDS011;7852;52.228;5.990;2022-08-19T00:23:25;11.6;;;8.7;;
15500;SDS011;7852;52.228;5.990;2022-08-19T00:24:25;10.8;;;8.7;;
15500;SDS011;7852;52.228;5.990;2022-08-19T00:25:25;12.7;;;8.5;;
15500;SDS011;7852;52.228;5.990;2022-08-19T00:26:25;9.7;;;8.5;;
15500;SDS011;7852;52.228;5.990;2022-08-19T00:27:25;9.6;;;7.9;;
15500;SDS011;7852;52.228;5.990;2022-08-19T00:28:25;9.3;;;7.5;;
15500;SDS011;7852;52.228;5.990;2022-08-19T00:29:25;11.9;;;8.5;;
15500;SDS011;7852;52.228;5.990;2022-08-19T00:30:25;11.5;;;7.7;;
15500;SDS011;7852;52.228;5.990;2022-08-19T00:31:25;10.4;;;8.4;;
15500;SDS011;7852;52.228;5.990;2022-08-19T00:32:25;11.3;;;8.5;;
15500;SDS011;7852;52.228;5.990;2022-08-19T00:33:25;10.6;;;8.4;;
15500;SDS011;7852;52.228;5.990;2022-08-19T00:34:25;10.1;;;8.2;;
15500;SDS011;7852;52.228;5.990;2022-08-19T00:35:25;12.5;;;8.8;;
15500;SDS011;7852;52.228;5.990;2022-08-19T00:36:25;10.8;;;8.7;;
15500;SDS011;7852;52.228;5.990;2022-08-19T00:37:25;10.7;;;8.2;;
15500;SDS011;7852;52.228;5.990;2022-08-19T00:38:25;14.2;;;8.8;;
15500;SDS011;7852;52.228;5.990;2022-08-19T00:39:25;12.6;;;8.9;;
15500;SDS011;7852;52.228;5.990;2022-08-19T00:40:25;11.7;;;9.1;;
15500;SDS011;7852;52.228;5.990;2022-08-19T00:41:25;9.5;;;8.4;;
15500;SDS011;7852;52.228;5.990;2022-08-19T00:42:25;12.4;;;9.4;;
15500;SDS011;7852;52.228;5.990;2022-08-19T00:43:26;10.6;;;8.8;;
15500;SDS011;7852;52.228;5.990;2022-08-19T00:44:26;12;;;8.7;;
15500;SDS011;7852;52.228;5.990;2022-08-19T00:45:26;12;;;8.8;;
15500;SDS011;7852;52.228;5.990;2022-08-19T00:46:25;11.2;;;8.2;;
15500;SDS011;7852;52.228;5.990;2022-08-19T00:47:25;10.3;;;7.4;;
15500;SDS011;7852;52.228;5.990;2022-08-19T00:48:25;8.3;;;6.5;;
15500;SDS011;7852;52.228;5.990;2022-08-19T00:49:26;7.9;;;6.5;;
15500;SDS011;7852;52.228;5.990;2022-08-19T00:50:25;10;;;7.8;;
15500;SDS011;7852;52.228;5.990;2022-08-19T00:51:25;10.6;;;8.6;;
15500;SDS011;7852;52.228;5.990;2022-08-19T00:52:26;14.2;;;9.4;;
15500;SDS011;7852;52.228;5.990;2022-08-19T00:53:26;12.2;;;9.6;;
15500;SDS011;7852;52.228;5.990;2022-08-19T00:54:25;14.4;;;10.1;;
15500;SDS011;7852;52.228;5.990;2022-08-19T00:55:26;13;;;9.8;;
15500;SDS011;7852;52.228;5.990;2022-08-19T00:56:25;12.3;;;9.1;;
15500;SDS011;7852;52.228;5.990;2022-08-19T00:57:28;11.6;;;8.3;;
15500;SDS011;7852;52.228;5.990;2022-08-19T00:58:26;11.9;;;8.4;;
15500;SDS011;7852;52.228;5.990;2022-08-19T00:59:25;12.1;;;8.4;;
15500;SDS011;7852;52.228;5.990;2022-08-19T01:00:26;11.2;;;8.3;;
15500;SDS011;7852;52.228;5.990;2022-08-19T01:01:25;14.1;;;9;;
15500;SDS011;7852;52.228;5.990;2022-08-19T01:02:25;12.1;;;9.1;;
15500;SDS011;7852;52.228;5.990;2022-08-19T01:03:25;10.1;;;8.2;;
15500;SDS011;7852;52.228;5.990;2022-08-19T01:04:25;9.5;;;8.1;;
15500;SDS011;7852;52.228;5.990;2022-08-19T01:05:26;10.7;;;8.5;;
15500;SDS011;7852;52.228;5.990;2022-08-19T01:06:26;12.5;;;9.1;;
15500;SDS011;7852;52.228;5.990;2022-08-19T01:07:25;13.2;;;9.1;;
15500;SDS011;7852;52.228;5.990;2022-08-19T01:08:25;11.5;;;8.8;;
15500;SDS011;7852;52.228;5.990;2022-08-19T01:09:25;12.5;;;8.5;;
15500;SDS011;7852;52.228;5.990;2022-08-19T01:10:27;11.1;;;7.7;;
15500;SDS011;7852;52.228;5.990;2022-08-19T01:11:25;10.2;;;7.6;;
15500;SDS011;7852;52.228;5.990;2022-08-19T01:12:25;9.6;;;7.8;;
15500;SDS011;7852;52.228;5.990;2022-08-19T01:13:27;9.5;;;7.6;;
15500;SDS011;7852;52.228;5.990;2022-08-19T01:14:25;10.6;;;8.2;;
15500;SDS011;7852;52.228;5.990;2022-08-19T01:15:27;10.8;;;8.6;;
15500;SDS011;7852;52.228;5.990;2022-08-19T01:16:26;12;;;9;;
15500;SDS011;7852;52.228;5.990;2022-08-19T01:17:25;11;;;8.1;;
15500;SDS011;7852;52.228;5.990;2022-08-19T01:18:25;11.3;;;8.5;;
15500;SDS011;7852;52.228;5.990;2022-08-19T01:19:27;11;;;7.9;;
15500;SDS011;7852;52.228;5.990;2022-08-19T01:20:25;9.8;;;7.5;;
15500;SDS011;7852;52.228;5.990;2022-08-19T01:21:26;11.7;;;8.4;;
15500;SDS011;7852;52.228;5.990;2022-08-19T01:22:27;11.6;;;8.6;;
15500;SDS011;7852;52.228;5.990;2022-08-19T01:23:25;9.8;;;7.5;;
15500;SDS011;7852;52.228;5.990;2022-08-19T01:24:25;8.1;;;6.5;;
15500;SDS011;7852;52.228;5.990;2022-08-19T01:25:26;9.5;;;7.4;;
15500;SDS011;7852;52.228;5.990;2022-08-19T01:26:26;7.7;;;6.3;;
15500;SDS011;7852;52.228;5.990;2022-08-19T01:27:25;11.7;;;7.6;;
15500;SDS011;7852;52.228;5.990;2022-08-19T01:28:26;10.6;;;6.7;;
15500;SDS011;7852;52.228;5.990;2022-08-19T01:29:25;9.7;;;6.9;;
15500;SDS011;7852;52.228;5.990;2022-08-19T01:30:27;7.7;;;6.3;;
15500;SDS011;7852;52.228;5.990;2022-08-19T01:31:26;7.2;;;6.4;;
15500;SDS011;7852;52.228;5.990;2022-08-19T01:32:25;9.1;;;6.1;;
15500;SDS011;7852;52.228;5.990;2022-08-19T01:33:25;7.2;;;5.5;;
15500;SDS011;7852;52.228;5.990;2022-08-19T01:34:25;7.1;;;5.3;;
15500;SDS011;7852;52.228;5.990;2022-08-19T01:35:26;7.4;;;5.3;;
15500;SDS011;7852;52.228;5.990;2022-08-19T01:36:26;7.9;;;5.8;;
15500;SDS011;7852;52.228;5.990;2022-08-19T01:37:25;8.8;;;6.7;;
15500;SDS011;7852;52.228;5.990;2022-08-19T01:38:26;8.2;;;6.5;;
15500;SDS011;7852;52.228;5.990;2022-08-19T01:39:25;9.7;;;6.7;;
15500;SDS011;7852;52.228;5.990;2022-08-19T01:40:26;8;;;7;;
15500;SDS011;7852;52.228;5.990;2022-08-19T01:41:25;8.8;;;6.9;;
15500;SDS011;7852;52.228;5.990;2022-08-19T01:42:25;8.7;;;7.1;;
15500;SDS011;7852;52.228;5.990;2022-08-19T01:43:25;9.7;;;6.9;;
15500;SDS011;7852;52.228;5.990;2022-08-19T01:44:27;8.7;;;7;;
15500;SDS011;7852;52.228;5.990;2022-08-19T01:45:26;7.5;;;5.8;;
15500;SDS011;7852;52.228;5.990;2022-08-19T01:46:25;6.9;;;5.7;;
15500;SDS011;7852;52.228;5.990;2022-08-19T01:47:25;7.2;;;4.9;;
15500;SDS011;7852;52.228;5.990;2022-08-19T01:48:25;7.3;;;5.2;;
15500;SDS011;7852;52.228;5.990;2022-08-19T01:49:25;8.4;;;5.4;;
15500;SDS011;7852;52.228;5.990;2022-08-19T01:50:25;7.8;;;5.8;;
15500;SDS011;7852;52.228;5.990;2022-08-19T01:51:25;8.8;;;6.1;;
15500;SDS011;7852;52.228;5.990;2022-08-19T01:52:25;7.6;;;5.6;;
15500;SDS011;7852;52.228;5.990;2022-08-19T01:53:25;7.5;;;5.7;;
15500;SDS011;7852;52.228;5.990;2022-08-19T01:54:25;9.4;;;5.9;;
15500;SDS011;7852;52.228;5.990;2022-08-19T01:55:25;7.8;;;5.7;;
15500;SDS011;7852;52.228;5.990;2022-08-19T01:56:25;8.1;;;5.8;;
15500;SDS011;7852;52.228;5.990;2022-08-19T01:57:25;7.3;;;6.3;;
15500;SDS011;7852;52.228;5.990;2022-08-19T01:58:27;8.8;;;6.1;;
15500;SDS011;7852;52.228;5.990;2022-08-19T01:59:25;7.7;;;5.7;;
15500;SDS011;7852;52.228;5.990;2022-08-19T02:00:26;8;;;6.5;;
15500;SDS011;7852;52.228;5.990;2022-08-19T02:01:25;8.2;;;6.2;;
15500;SDS011;7852;52.228;5.990;2022-08-19T02:02:25;8.1;;;6.3;;
15500;SDS011;7852;52.228;5.990;2022-08-19T02:03:25;8.2;;;6.4;;
15500;SDS011;7852;52.228;5.990;2022-08-19T02:04:25;9.6;;;6.1;;
15500;SDS011;7852;52.228;5.990;2022-08-19T02:05:25;6.5;;;5.1;;
15500;SDS011;7852;52.228;5.990;2022-08-19T02:06:25;7.6;;;5.9;;
15500;SDS011;7852;52.228;5.990;2022-08-19T02:07:25;6.7;;;5.4;;
15500;SDS011;7852;52.228;5.990;2022-08-19T02:08:25;7.1;;;5.2;;
15500;SDS011;7852;52.228;5.990;2022-08-19T02:09:25;8.4;;;5.3;;
15500;SDS011;7852;52.228;5.990;2022-08-19T02:10:25;7;;;5.3;;
15500;SDS011;7852;52.228;5.990;2022-08-19T02:11:26;8.2;;;5.3;;
15500;SDS011;7852;52.228;5.990;2022-08-19T02:12:25;7.7;;;5.1;;
15500;SDS011;7852;52.228;5.990;2022-08-19T02:13:26;9.1;;;6.7;;
15500;SDS011;7852;52.228;5.990;2022-08-19T02:14:25;9;;;6.9;;
15500;SDS011;7852;52.228;5.990;2022-08-19T02:15:25;8.1;;;6.3;;
15500;SDS011;7852;52.228;5.990;2022-08-19T02:16:25;9;;;6.6;;
15500;SDS011;7852;52.228;5.990;2022-08-19T02:17:25;7.7;;;6.4;;
15500;SDS011;7852;52.228;5.990;2022-08-19T02:18:25;9.4;;;7.1;;
15500;SDS011;7852;52.228;5.990;2022-08-19T02:19:25;8.3;;;6.5;;
15500;SDS011;7852;52.228;5.990;2022-08-19T02:20:25;7.5;;;6.5;;
15500;SDS011;7852;52.228;5.990;2022-08-19T02:21:25;8.2;;;6.6;;
15500;SDS011;7852;52.228;5.990;2022-08-19T02:22:25;11.3;;;7.5;;
15500;SDS011;7852;52.228;5.990;2022-08-19T02:23:25;9.2;;;7.2;;
15500;SDS011;7852;52.228;5.990;2022-08-19T02:24:25;10.1;;;6.5;;
15500;SDS011;7852;52.228;5.990;2022-08-19T02:25:25;8.5;;;6.5;;
15500;SDS011;7852;52.228;5.990;2022-08-19T02:26:25;9.4;;;5.6;;
15500;SDS011;7852;52.228;5.990;2022-08-19T02:27:25;7.4;;;5.5;;
15500;SDS011;7852;52.228;5.990;2022-08-19T02:28:25;6.5;;;5.2;;
15500;SDS011;7852;52.228;5.990;2022-08-19T02:29:25;10.8;;;6;;
15500;SDS011;7852;52.228;5.990;2022-08-19T02:30:26;9.3;;;5.7;;
15500;SDS011;7852;52.228;5.990;2022-08-19T02:31:25;6.9;;;5.5;;
15500;SDS011;7852;52.228;5.990;2022-08-19T02:32:25;10.2;;;6.2;;
15500;SDS011;7852;52.228;5.990;2022-08-19T02:33:25;7.5;;;6;;
15500;SDS011;7852;52.228;5.990;2022-08-19T02:34:25;7.7;;;5.7;;
15500;SDS011;7852;52.228;5.990;2022-08-19T02:35:25;10.2;;;6.5;;
15500;SDS011;7852;52.228;5.990;2022-08-19T02:36:25;9.2;;;6.2;;
15500;SDS011;7852;52.228;5.990;2022-08-19T02:37:25;9.9;;;6.9;;
15500;SDS011;7852;52.228;5.990;2022-08-19T02:38:25;10.5;;;7.2;;
15500;SDS011;7852;52.228;5.990;2022-08-19T02:39:25;8.8;;;6.6;;
15500;SDS011;7852;52.228;5.990;2022-08-19T02:40:25;9.7;;;7.2;;
15500;SDS011;7852;52.228;5.990;2022-08-19T02:41:26;10.5;;;6.5;;
15500;SDS011;7852;52.228;5.990;2022-08-19T02:42:25;8.5;;;6.1;;
15500;SDS011;7852;52.228;5.990;2022-08-19T02:43:25;8.5;;;5.9;;
15500;SDS011;7852;52.228;5.990;2022-08-19T02:44:25;8.3;;;5.9;;
15500;SDS011;7852;52.228;5.990;2022-08-19T02:45:25;6.9;;;5.5;;
15500;SDS011;7852;52.228;5.990;2022-08-19T02:46:27;7.8;;;6;;
15500;SDS011;7852;52.228;5.990;2022-08-19T02:47:25;7.5;;;6.3;;
15500;SDS011;7852;52.228;5.990;2022-08-19T02:48:25;8.9;;;6.6;;
15500;SDS011;7852;52.228;5.990;2022-08-19T02:49:25;8.7;;;6.6;;
15500;SDS011;7852;52.228;5.990;2022-08-19T02:50:25;8.8;;;7.2;;
15500;SDS011;7852;52.228;5.990;2022-08-19T02:51:26;8.8;;;6.7;;
15500;SDS011;7852;52.228;5.990;2022-08-19T02:52:25;8.2;;;6.5;;
15500;SDS011;7852;52.228;5.990;2022-08-19T02:53:26;9.2;;;6.9;;
15500;SDS011;7852;52.228;5.990;2022-08-19T02:54:25;7.2;;;5.4;;
15500;SDS011;7852;52.228;5.990;2022-08-19T02:55:25;9.7;;;5.4;;
15500;SDS011;7852;52.228;5.990;2022-08-19T02:56:26;5.9;;;5.1;;
15500;SDS011;7852;52.228;5.990;2022-08-19T02:57:25;6.7;;;5.2;;
15500;SDS011;7852;52.228;5.990;2022-08-19T02:58:25;6.7;;;5.6;;
15500;SDS011;7852;52.228;5.990;2022-08-19T02:59:25;8.1;;;6;;
15500;SDS011;7852;52.228;5.990;2022-08-19T03:00:25;7.2;;;5.2;;
15500;SDS011;7852;52.228;5.990;2022-08-19T03:01:26;7.6;;;5.1;;
15500;SDS011;7852;52.228;5.990;2022-08-19T03:02:25;8.8;;;6.3;;
15500;SDS011;7852;52.228;5.990;2022-08-19T03:03:25;8.2;;;5.9;;
15500;SDS011;7852;52.228;5.990;2022-08-19T03:04:25;7;;;5.3;;
15500;SDS011;7852;52.228;5.990;2022-08-19T03:05:25;8.1;;;6.5;;
15500;SDS011;7852;52.228;5.990;2022-08-19T03:06:25;8.2;;;6.3;;
15500;SDS011;7852;52.228;5.990;2022-08-19T03:07:25;10.3;;;6.6;;
15500;SDS011;7852;52.228;5.990;2022-08-19T03:08:25;8.2;;;6.9;;
15500;SDS011;7852;52.228;5.990;2022-08-19T03:09:25;7.6;;;6.8;;
15500;SDS011;7852;52.228;5.990;2022-08-19T03:10:25;9.4;;;7;;
15500;SDS011;7852;52.228;5.990;2022-08-19T03:11:26;7.3;;;4.9;;
15500;SDS011;7852;52.228;5.990;2022-08-19T03:12:25;7.7;;;4.4;;
15500;SDS011;7852;52.228;5.990;2022-08-19T03:13:25;7;;;5.7;;
15500;SDS011;7852;52.228;5.990;2022-08-19T03:14:25;7.9;;;5.3;;
15500;SDS011;7852;52.228;5.990;2022-08-19T03:15:25;7.1;;;5.7;;
15500;SDS011;7852;52.228;5.990;2022-08-19T03:16:26;8.1;;;5.4;;
15500;SDS011;7852;52.228;5.990;2022-08-19T03:17:25;8.2;;;5.9;;
15500;SDS011;7852;52.228;5.990;2022-08-19T03:18:25;8.2;;;5.5;;
15500;SDS011;7852;52.228;5.990;2022-08-19T03:19:26;9.2;;;5.5;;
15500;SDS011;7852;52.228;5.990;2022-08-19T03:20:25;7.4;;;5.1;;
15500;SDS011;7852;52.228;5.990;2022-08-19T03:21:26;10;;;5.6;;
15500;SDS011;7852;52.228;5.990;2022-08-19T03:22:25;7.6;;;5.7;;
15500;SDS011;7852;52.228;5.990;2022-08-19T03:23:25;7.8;;;5.8;;
15500;SDS011;7852;52.228;5.990;2022-08-19T03:24:25;8.8;;;5.9;;
15500;SDS011;7852;52.228;5.990;2022-08-19T03:25:25;8.3;;;5.4;;
15500;SDS011;7852;52.228;5.990;2022-08-19T03:26:47;5.8;;;4.3;;
15500;SDS011;7852;52.228;5.990;2022-08-19T03:27:46;10.5;;;5.9;;
15500;SDS011;7852;52.228;5.990;2022-08-19T03:28:46;10.1;;;6.4;;
15500;SDS011;7852;52.228;5.990;2022-08-19T03:29:46;9.5;;;6.2;;
15500;SDS011;7852;52.228;5.990;2022-08-19T03:30:54;10;;;6.7;;
15500;SDS011;7852;52.228;5.990;2022-08-19T03:31:46;7.9;;;5.7;;
15500;SDS011;7852;52.228;5.990;2022-08-19T03:32:46;9.6;;;6.2;;
15500;SDS011;7852;52.228;5.990;2022-08-19T03:33:46;8.5;;;6.7;;
15500;SDS011;7852;52.228;5.990;2022-08-19T03:34:46;10.2;;;6.3;;
15500;SDS011;7852;52.228;5.990;2022-08-19T03:35:46;10.2;;;6.7;;
15500;SDS011;7852;52.228;5.990;2022-08-19T03:36:46;9.1;;;6.3;;
15500;SDS011;7852;52.228;5.990;2022-08-19T03:37:46;9.7;;;6.6;;
15500;SDS011;7852;52.228;5.990;2022-08-19T03:38:47;8.6;;;6.4;;
15500;SDS011;7852;52.228;5.990;2022-08-19T03:39:46;6.1;;;4.6;;
15500;SDS011;7852;52.228;5.990;2022-08-19T03:40:47;6.7;;;4.5;;
15500;SDS011;7852;52.228;5.990;2022-08-19T03:41:46;6.4;;;5;;
15500;SDS011;7852;52.228;5.990;2022-08-19T03:42:46;8.4;;;5.3;;
15500;SDS011;7852;52.228;5.990;2022-08-19T03:43:46;7.9;;;5.5;;
15500;SDS011;7852;52.228;5.990;2022-08-19T03:44:46;7.6;;;5.1;;
15500;SDS011;7852;52.228;5.990;2022-08-19T03:45:46;8.2;;;5.8;;
15500;SDS011;7852;52.228;5.990;2022-08-19T03:46:46;8.7;;;5.8;;
15500;SDS011;7852;52.228;5.990;2022-08-19T03:47:46;10.9;;;6.3;;
15500;SDS011;7852;52.228;5.990;2022-08-19T03:48:46;7.9;;;6;;
15500;SDS011;7852;52.228;5.990;2022-08-19T03:49:46;8.5;;;6.3;;
15500;SDS011;7852;52.228;5.990;2022-08-19T03:50:46;10.8;;;6.3;;
15500;SDS011;7852;52.228;5.990;2022-08-19T03:51:47;7.8;;;6.1;;
15500;SDS011;7852;52.228;5.990;2022-08-19T03:52:47;8.9;;;5.7;;
15500;SDS011;7852;52.228;5.990;2022-08-19T03:53:46;7.8;;;6.6;;
15500;SDS011;7852;52.228;5.990;2022-08-19T03:54:46;9.4;;;6.3;;
15500;SDS011;7852;52.228;5.990;2022-08-19T03:55:46;7.8;;;6.2;;
15500;SDS011;7852;52.228;5.990;2022-08-19T03:56:47;7.3;;;6.1;;
15500;SDS011;7852;52.228;5.990;2022-08-19T03:57:46;9.1;;;6.6;;
15500;SDS011;7852;52.228;5.990;2022-08-19T03:58:46;7.9;;;6.6;;
15500;SDS011;7852;52.228;5.990;2022-08-19T03:59:46;9.3;;;7.1;;
15500;SDS011;7852;52.228;5.990;2022-08-19T04:00:46;10.7;;;7;;
15500;SDS011;7852;52.228;5.990;2022-08-19T04:01:46;10.2;;;7.6;;
15500;SDS011;7852;52.228;5.990;2022-08-19T04:02:46;11.5;;;8.6;;
15500;SDS011;7852;52.228;5.990;2022-08-19T04:03:46;11.5;;;8.5;;
15500;SDS011;7852;52.228;5.990;2022-08-19T04:04:46;8.2;;;6.1;;
15500;SDS011;7852;52.228;5.990;2022-08-19T04:05:46;8.1;;;6;;
15500;SDS011;7852;52.228;5.990;2022-08-19T04:06:46;9.7;;;6.1;;
15500;SDS011;7852;52.228;5.990;2022-08-19T04:07:46;9.8;;;6.1;;
15500;SDS011;7852;52.228;5.990;2022-08-19T04:08:47;10;;;6.4;;
15500;SDS011;7852;52.228;5.990;2022-08-19T04:09:46;10.4;;;5.9;;
15500;SDS011;7852;52.228;5.990;2022-08-19T04:10:46;9.4;;;6;;
15500;SDS011;7852;52.228;5.990;2022-08-19T04:11:47;10.4;;;6.6;;
15500;SDS011;7852;52.228;5.990;2022-08-19T04:12:46;10.3;;;6.2;;
15500;SDS011;7852;52.228;5.990;2022-08-19T04:13:46;12.7;;;6.3;;
15500;SDS011;7852;52.228;5.990;2022-08-19T04:14:46;13.1;;;6.8;;
15500;SDS011;7852;52.228;5.990;2022-08-19T04:15:46;10.6;;;6.3;;
15500;SDS011;7852;52.228;5.990;2022-08-19T04:16:46;8.8;;;6.9;;
15500;SDS011;7852;52.228;5.990;2022-08-19T04:17:46;13.3;;;7;;
15500;SDS011;7852;52.228;5.990;2022-08-19T04:18:46;10.4;;;6.3;;
15500;SDS011;7852;52.228;5.990;2022-08-19T04:19:46;9.9;;;7.1;;
15500;SDS011;7852;52.228;5.990;2022-08-19T04:20:46;12.3;;;6.8;;
15500;SDS011;7852;52.228;5.990;2022-08-19T04:21:47;8.7;;;5.8;;
15500;SDS011;7852;52.228;5.990;2022-08-19T04:22:46;8.8;;;6.3;;
15500;SDS011;7852;52.228;5.990;2022-08-19T04:23:46;11.5;;;6.9;;
15500;SDS011;7852;52.228;5.990;2022-08-19T04:24:46;10.4;;;7.1;;
15500;SDS011;7852;52.228;5.990;2022-08-19T04:25:46;10.8;;;6.4;;
15500;SDS011;7852;52.228;5.990;2022-08-19T04:26:46;9.7;;;6.7;;
15500;SDS011;7852;52.228;5.990;2022-08-19T04:27:46;8.3;;;6;;
15500;SDS011;7852;52.228;5.990;2022-08-19T04:28:46;8.7;;;6.1;;
15500;SDS011;7852;52.228;5.990;2022-08-19T04:29:46;11.6;;;6.3;;
15500;SDS011;7852;52.228;5.990;2022-08-19T04:30:47;7.5;;;5.8;;
15500;SDS011;7852;52.228;5.990;2022-08-19T04:31:46;10.6;;;6.2;;
15500;SDS011;7852;52.228;5.990;2022-08-19T04:32:46;9.7;;;6.2;;
15500;SDS011;7852;52.228;5.990;2022-08-19T04:33:46;10.2;;;6.6;;
15500;SDS011;7852;52.228;5.990;2022-08-19T04:34:46;9;;;5.7;;
15500;SDS011;7852;52.228;5.990;2022-08-19T04:35:47;9.4;;;6.5;;
15500;SDS011;7852;52.228;5.990;2022-08-19T04:36:46;9.6;;;6.7;;
15500;SDS011;7852;52.228;5.990;2022-08-19T04:37:46;10.2;;;6.5;;
15500;SDS011;7852;52.228;5.990;2022-08-19T04:38:46;9.2;;;6.6;;
15500;SDS011;7852;52.228;5.990;2022-08-19T04:39:46;10.5;;;7.2;;
15500;SDS011;7852;52.228;5.990;2022-08-19T04:40:47;8.1;;;6.5;;
15500;SDS011;7852;52.228;5.990;2022-08-19T04:41:47;10;;;7.4;;
15500;SDS011;7852;52.228;5.990;2022-08-19T04:42:46;9.4;;;6.3;;
15500;SDS011;7852;52.228;5.990;2022-08-19T04:43:46;9.2;;;6.7;;
15500;SDS011;7852;52.228;5.990;2022-08-19T04:44:46;10.6;;;6.8;;
15500;SDS011;7852;52.228;5.990;2022-08-19T04:45:46;10.3;;;7.3;;
15500;SDS011;7852;52.228;5.990;2022-08-19T04:46:46;10.1;;;6.9;;
15500;SDS011;7852;52.228;5.990;2022-08-19T04:47:46;10.3;;;6.9;;
15500;SDS011;7852;52.228;5.990;2022-08-19T04:48:46;8.5;;;5.6;;
15500;SDS011;7852;52.228;5.990;2022-08-19T04:49:46;8.8;;;6;;
15500;SDS011;7852;52.228;5.990;2022-08-19T04:50:46;8.6;;;6;;
15500;SDS011;7852;52.228;5.990;2022-08-19T04:51:46;8.4;;;6;;
15500;SDS011;7852;52.228;5.990;2022-08-19T04:52:46;9.2;;;6.1;;
15500;SDS011;7852;52.228;5.990;2022-08-19T04:53:46;9.1;;;6.2;;
15500;SDS011;7852;52.228;5.990;2022-08-19T04:54:46;10.3;;;6.6;;
15500;SDS011;7852;52.228;5.990;2022-08-19T04:55:46;11.5;;;7;;
15500;SDS011;7852;52.228;5.990;2022-08-19T04:56:46;11.3;;;6.6;;
15500;SDS011;7852;52.228;5.990;2022-08-19T04:57:46;8;;;6.6;;
15500;SDS011;7852;52.228;5.990;2022-08-19T04:58:46;10.8;;;7.4;;
15500;SDS011;7852;52.228;5.990;2022-08-19T04:59:46;10;;;7.4;;
15500;SDS011;7852;52.228;5.990;2022-08-19T05:00:46;10.9;;;6.8;;
15500;SDS011;7852;52.228;5.990;2022-08-19T05:01:46;8;;;6.6;;
15500;SDS011;7852;52.228;5.990;2022-08-19T05:02:46;10.8;;;7;;
15500;SDS011;7852;52.228;5.990;2022-08-19T05:03:46;11.8;;;6.7;;
15500;SDS011;7852;52.228;5.990;2022-08-19T05:04:46;10.6;;;6.8;;
15500;SDS011;7852;52.228;5.990;2022-08-19T05:05:47;11.1;;;8.1;;
15500;SDS011;7852;52.228;5.990;2022-08-19T05:06:46;11.3;;;7.8;;
15500;SDS011;7852;52.228;5.990;2022-08-19T05:07:46;9.8;;;7.3;;
15500;SDS011;7852;52.228;5.990;2022-08-19T05:08:46;10.5;;;6.9;;
15500;SDS011;7852;52.228;5.990;2022-08-19T05:09:46;10.5;;;7.7;;
15500;SDS011;7852;52.228;5.990;2022-08-19T05:10:47;10.6;;;7.7;;
15500;SDS011;7852;52.228;5.990;2022-08-19T05:11:46;9.8;;;7;;
15500;SDS011;7852;52.228;5.990;2022-08-19T05:12:46;8.5;;;6.8;;
15500;SDS011;7852;52.228;5.990;2022-08-19T05:13:46;8.7;;;6.2;;
15500;SDS011;7852;52.228;5.990;2022-08-19T05:14:46;9.4;;;6.4;;
15500;SDS011;7852;52.228;5.990;2022-08-19T05:15:53;7.8;;;5.8;;
15500;SDS011;7852;52.228;5.990;2022-08-19T05:16:46;9.5;;;6.5;;
15500;SDS011;7852;52.228;5.990;2022-08-19T05:17:46;9.3;;;6.7;;
15500;SDS011;7852;52.228;5.990;2022-08-19T05:18:46;10.6;;;6.6;;
15500;SDS011;7852;52.228;5.990;2022-08-19T05:19:46;9.9;;;6.7;;
15500;SDS011;7852;52.228;5.990;2022-08-19T05:20:46;11.1;;;6.7;;
15500;SDS011;7852;52.228;5.990;2022-08-19T05:21:46;7.5;;;5.8;;
15500;SDS011;7852;52.228;5.990;2022-08-19T05:22:46;11.7;;;6.6;;
15500;SDS011;7852;52.228;5.990;2022-08-19T05:23:46;10;;;6.6;;
15500;SDS011;7852;52.228;5.990;2022-08-19T05:24:46;10.2;;;6.7;;
15500;SDS011;7852;52.228;5.990;2022-08-19T05:25:46;9.4;;;6.7;;
15500;SDS011;7852;52.228;5.990;2022-08-19T05:26:47;8.7;;;6.4;;
15500;SDS011;7852;52.228;5.990;2022-08-19T05:27:46;10.5;;;6.3;;
15500;SDS011;7852;52.228;5.990;2022-08-19T05:28:47;9.7;;;6.9;;
15500;SDS011;7852;52.228;5.990;2022-08-19T05:29:46;10.1;;;6.8;;
15500;SDS011;7852;52.228;5.990;2022-08-19T05:30:46;10.7;;;7.4;;
15500;SDS011;7852;52.228;5.990;2022-08-19T05:31:46;9.7;;;6.7;;
15500;SDS011;7852;52.228;5.990;2022-08-19T05:32:46;10.1;;;7.3;;
15500;SDS011;7852;52.228;5.990;2022-08-19T05:33:46;10.4;;;7.4;;
15500;SDS011;7852;52.228;5.990;2022-08-19T05:34:46;12.1;;;7.3;;
15500;SDS011;7852;52.228;5.990;2022-08-19T05:35:46;9.1;;;7.2;;
15500;SDS011;7852;52.228;5.990;2022-08-19T05:36:46;9.6;;;6.6;;
15500;SDS011;7852;52.228;5.990;2022-08-19T05:37:46;10.1;;;7.3;;
15500;SDS011;7852;52.228;5.990;2022-08-19T05:38:46;9.9;;;6.8;;
15500;SDS011;7852;52.228;5.990;2022-08-19T05:39:46;9.1;;;6.4;;
15500;SDS011;7852;52.228;5.990;2022-08-19T05:40:46;11.4;;;7.5;;
15500;SDS011;7852;52.228;5.990;2022-08-19T05:41:47;10.2;;;7.1;;
15500;SDS011;7852;52.228;5.990;2022-08-19T05:42:46;13.2;;;7.5;;
15500;SDS011;7852;52.228;5.990;2022-08-19T05:43:46;9.6;;;7;;
15500;SDS011;7852;52.228;5.990;2022-08-19T05:44:46;11.6;;;7.3;;
15500;SDS011;7852;52.228;5.990;2022-08-19T05:45:46;10.3;;;7.5;;
15500;SDS011;7852;52.228;5.990;2022-08-19T05:46:46;11.6;;;7.4;;
15500;SDS011;7852;52.228;5.990;2022-08-19T05:47:46;12.7;;;7.7;;
15500;SDS011;7852;52.228;5.990;2022-08-19T05:48:46;11.3;;;8.3;;
15500;SDS011;7852;52.228;5.990;2022-08-19T05:49:46;12.7;;;8.4;;
15500;SDS011;7852;52.228;5.990;2022-08-19T05:50:46;13.6;;;8.7;;
15500;SDS011;7852;52.228;5.990;2022-08-19T05:51:46;12.9;;;8.6;;
15500;SDS011;7852;52.228;5.990;2022-08-19T05:52:46;12.3;;;9.3;;
15500;SDS011;7852;52.228;5.990;2022-08-19T05:53:46;15.5;;;9.1;;
15500;SDS011;7852;52.228;5.990;2022-08-19T05:54:46;15.3;;;10.2;;
15500;SDS011;7852;52.228;5.990;2022-08-19T05:55:46;13.8;;;9.9;;
15500;SDS011;7852;52.228;5.990;2022-08-19T05:56:46;14.5;;;10.7;;
15500;SDS011;7852;52.228;5.990;2022-08-19T05:57:46;16.4;;;10.8;;
15500;SDS011;7852;52.228;5.990;2022-08-19T05:58:46;15.3;;;10.8;;
15500;SDS011;7852;52.228;5.990;2022-08-19T05:59:46;14.1;;;10.3;;
15500;SDS011;7852;52.228;5.990;2022-08-19T06:00:46;15.7;;;10.4;;
15500;SDS011;7852;52.228;5.990;2022-08-19T06:01:47;16.6;;;10.5;;
15500;SDS011;7852;52.228;5.990;2022-08-19T06:02:46;16.7;;;10.6;;
15500;SDS011;7852;52.228;5.990;2022-08-19T06:03:46;16.6;;;10.6;;
15500;SDS011;7852;52.228;5.990;2022-08-19T06:04:46;17.5;;;11.3;;
15500;SDS011;7852;52.228;5.990;2022-08-19T06:05:46;15.4;;;11.2;;
15500;SDS011;7852;52.228;5.990;2022-08-19T06:06:46;15.2;;;10.6;;
15500;SDS011;7852;52.228;5.990;2022-08-19T06:07:46;14.8;;;11.2;;
15500;SDS011;7852;52.228;5.990;2022-08-19T06:08:46;15.8;;;10.8;;
15500;SDS011;7852;52.228;5.990;2022-08-19T06:09:46;16.8;;;11.6;;
15500;SDS011;7852;52.228;5.990;2022-08-19T06:10:46;15.8;;;10.9;;
15500;SDS011;7852;52.228;5.990;2022-08-19T06:11:47;15.7;;;11.2;;
15500;SDS011;7852;52.228;5.990;2022-08-19T06:12:46;15.6;;;11.2;;
15500;SDS011;7852;52.228;5.990;2022-08-19T06:13:47;16.1;;;11.3;;
15500;SDS011;7852;52.228;5.990;2022-08-19T06:14:46;17.4;;;11.9;;
15500;SDS011;7852;52.228;5.990;2022-08-19T06:15:46;17.7;;;10.9;;
15500;SDS011;7852;52.228;5.990;2022-08-19T06:16:46;16.1;;;10.8;;
15500;SDS011;7852;52.228;5.990;2022-08-19T06:17:46;17.3;;;11;;
15500;SDS011;7852;52.228;5.990;2022-08-19T06:18:46;15;;;10.6;;
15500;SDS011;7852;52.228;5.990;2022-08-19T06:19:46;15.2;;;11.1;;
15500;SDS011;7852;52.228;5.990;2022-08-19T06:20:46;14.9;;;10.4;;
15500;SDS011;7852;52.228;5.990;2022-08-19T06:21:47;17.5;;;11;;